Sunbeam, Idaho
Current Conditions -  °F | °C
As of 8:55 AM on Sunday 25 Jan 2015 (Local Time) from KLLJ Reporting Station
Clear Clear  
Wind Chill: 27°   Ceiling: Unl
Heat Index: 27°   Visibility: 10mi
Dew Point: 26°   Wind: 3mph
Humidity: 96%   Direction: 30°NNE
Pressure: 30.4"   Gusts: NA
Location:  44.3379°N, 114.824°W
Report Text: KLLJ 251555Z AUTO 03003KT 10SM CLR M03/M03 A3040 RMK AO2 SLP319 I1000 T10281033
Loading
Personal Weather Stations






























Interactive Weather Map New forecast layout! Learn more

10-Day Weather Forecast

Advertisements
Track Severe Weather on mobile